sensor_id;sensor_type;location;lat;lon;timestamp;P1;durP1;ratioP1;P2;durP2;ratioP2
11187;SDS011;5650;52.700;7.306;2024-03-23T00:55:13;27.67;;;6.18;;
11187;SDS011;5650;52.700;7.306;2024-03-23T00:57:39;30.95;;;6.07;;
11187;SDS011;5650;52.700;7.306;2024-03-23T01:00:06;36.03;;;7.05;;
11187;SDS011;5650;52.700;7.306;2024-03-23T01:02:37;31.10;;;7.47;;
11187;SDS011;5650;52.700;7.306;2024-03-23T01:05:04;30.92;;;6.70;;
11187;SDS011;5650;52.700;7.306;2024-03-23T01:07:30;27.02;;;6.50;;
11187;SDS011;5650;52.700;7.306;2024-03-23T01:09:57;36.42;;;7.38;;
11187;SDS011;5650;52.700;7.306;2024-03-23T01:12:24;28.98;;;6.82;;
11187;SDS011;5650;52.700;7.306;2024-03-23T01:14:51;48.63;;;7.60;;
11187;SDS011;5650;52.700;7.306;2024-03-23T01:17:17;30.23;;;7.07;;
11187;SDS011;5650;52.700;7.306;2024-03-23T01:19:46;34.42;;;6.55;;
11187;SDS011;5650;52.700;7.306;2024-03-23T01:22:12;30.63;;;7.25;;
11187;SDS011;5650;52.700;7.306;2024-03-23T01:24:39;30.73;;;5.80;;
11187;SDS011;5650;52.700;7.306;2024-03-23T01:27:05;29.80;;;6.18;;
11187;SDS011;5650;52.700;7.306;2024-03-23T01:29:32;40.05;;;7.00;;
11187;SDS011;5650;52.700;7.306;2024-03-23T01:31:58;35.42;;;6.47;;
11187;SDS011;5650;52.700;7.306;2024-03-23T01:34:25;39.78;;;7.28;;
11187;SDS011;5650;52.700;7.306;2024-03-23T01:36:54;37.05;;;6.95;;
11187;SDS011;5650;52.700;7.306;2024-03-23T01:39:21;25.52;;;6.22;;
11187;SDS011;5650;52.700;7.306;2024-03-23T01:41:48;31.02;;;6.88;;
11187;SDS011;5650;52.700;7.306;2024-03-23T01:44:15;38.20;;;6.78;;
11187;SDS011;5650;52.700;7.306;2024-03-23T01:46:41;33.40;;;7.88;;
11187;SDS011;5650;52.700;7.306;2024-03-23T01:49:08;34.67;;;6.55;;
11187;SDS011;5650;52.700;7.306;2024-03-23T01:51:35;33.65;;;6.55;;
11187;SDS011;5650;52.700;7.306;2024-03-23T01:54:05;38.20;;;7.13;;
11187;SDS011;5650;52.700;7.306;2024-03-23T01:56:32;29.25;;;7.07;;
11187;SDS011;5650;52.700;7.306;2024-03-23T01:59:00;26.25;;;6.93;;
11187;SDS011;5650;52.700;7.306;2024-03-23T02:01:27;38.30;;;7.10;;
11187;SDS011;5650;52.700;7.306;2024-03-23T02:03:54;28.77;;;5.97;;
11187;SDS011;5650;52.700;7.306;2024-03-23T02:06:20;25.50;;;6.45;;
11187;SDS011;5650;52.700;7.306;2024-03-23T02:08:47;32.88;;;6.80;;
11187;SDS011;5650;52.700;7.306;2024-03-23T02:11:15;35.72;;;7.00;;
11187;SDS011;5650;52.700;7.306;2024-03-23T02:13:42;37.10;;;7.65;;
11187;SDS011;5650;52.700;7.306;2024-03-23T02:16:08;28.95;;;6.25;;
11187;SDS011;5650;52.700;7.306;2024-03-23T02:18:36;41.03;;;7.13;;
11187;SDS011;5650;52.700;7.306;2024-03-23T02:21:02;28.63;;;6.75;;
11187;SDS011;5650;52.700;7.306;2024-03-23T02:23:31;36.85;;;7.03;;
11187;SDS011;5650;52.700;7.306;2024-03-23T02:25:58;34.30;;;7.10;;
11187;SDS011;5650;52.700;7.306;2024-03-23T02:28:25;25.13;;;6.63;;
11187;SDS011;5650;52.700;7.306;2024-03-23T02:30:51;39.90;;;7.43;;
11187;SDS011;5650;52.700;7.306;2024-03-23T02:33:18;37.83;;;7.10;;
11187;SDS011;5650;52.700;7.306;2024-03-23T02:35:45;44.00;;;7.65;;
11187;SDS011;5650;52.700;7.306;2024-03-23T02:38:12;38.33;;;7.45;;
11187;SDS011;5650;52.700;7.306;2024-03-23T02:40:40;44.13;;;7.68;;
11187;SDS011;5650;52.700;7.306;2024-03-23T02:43:07;35.70;;;7.47;;
11187;SDS011;5650;52.700;7.306;2024-03-23T02:45:33;34.58;;;7.45;;
11187;SDS011;5650;52.700;7.306;2024-03-23T02:48:00;33.90;;;6.70;;
11187;SDS011;5650;52.700;7.306;2024-03-23T02:50:26;33.75;;;7.30;;
11187;SDS011;5650;52.700;7.306;2024-03-23T02:52:53;44.50;;;8.35;;
11187;SDS011;5650;52.700;7.306;2024-03-23T02:55:19;38.90;;;7.65;;
11187;SDS011;5650;52.700;7.306;2024-03-23T02:57:49;30.38;;;7.45;;
11187;SDS011;5650;52.700;7.306;2024-03-23T03:00:15;37.13;;;7.88;;
11187;SDS011;5650;52.700;7.306;2024-03-23T03:02:42;33.72;;;7.68;;
11187;SDS011;5650;52.700;7.306;2024-03-23T03:05:08;24.88;;;6.88;;
11187;SDS011;5650;52.700;7.306;2024-03-23T03:07:36;38.40;;;6.65;;
11187;SDS011;5650;52.700;7.306;2024-03-23T03:10:04;31.00;;;7.57;;
11187;SDS011;5650;52.700;7.306;2024-03-23T03:12:33;38.47;;;7.07;;
11187;SDS011;5650;52.700;7.306;2024-03-23T03:15:01;34.22;;;6.65;;
11187;SDS011;5650;52.700;7.306;2024-03-23T03:17:28;27.83;;;6.55;;
11187;SDS011;5650;52.700;7.306;2024-03-23T03:19:54;33.45;;;7.18;;
11187;SDS011;5650;52.700;7.306;2024-03-23T03:22:22;38.30;;;8.23;;
11187;SDS011;5650;52.700;7.306;2024-03-23T03:24:49;38.50;;;8.27;;
11187;SDS011;5650;52.700;7.306;2024-03-23T03:27:16;46.22;;;7.78;;
11187;SDS011;5650;52.700;7.306;2024-03-23T03:29:42;37.63;;;7.00;;
11187;SDS011;5650;52.700;7.306;2024-03-23T03:32:11;33.50;;;7.78;;
11187;SDS011;5650;52.700;7.306;2024-03-23T03:34:37;32.30;;;8.50;;
11187;SDS011;5650;52.700;7.306;2024-03-23T03:37:04;31.73;;;6.97;;
11187;SDS011;5650;52.700;7.306;2024-03-23T03:39:31;36.05;;;7.40;;
11187;SDS011;5650;52.700;7.306;2024-03-23T03:41:58;31.70;;;7.07;;
11187;SDS011;5650;52.700;7.306;2024-03-23T03:44:25;44.25;;;7.45;;
11187;SDS011;5650;52.700;7.306;2024-03-23T03:46:52;33.28;;;8.43;;
11187;SDS011;5650;52.700;7.306;2024-03-23T03:49:20;38.35;;;7.68;;
11187;SDS011;5650;52.700;7.306;2024-03-23T03:51:47;41.63;;;7.88;;
11187;SDS011;5650;52.700;7.306;2024-03-23T03:54:13;32.78;;;7.65;;
11187;SDS011;5650;52.700;7.306;2024-03-23T03:56:41;37.85;;;8.05;;
11187;SDS011;5650;52.700;7.306;2024-03-23T03:59:07;27.67;;;6.75;;
11187;SDS011;5650;52.700;7.306;2024-03-23T04:01:34;34.45;;;7.40;;
11187;SDS011;5650;52.700;7.306;2024-03-23T04:04:00;36.22;;;7.32;;
11187;SDS011;5650;52.700;7.306;2024-03-23T04:06:29;42.00;;;8.93;;
11187;SDS011;5650;52.700;7.306;2024-03-23T04:08:55;42.13;;;7.93;;
11187;SDS011;5650;52.700;7.306;2024-03-23T04:11:22;24.75;;;7.45;;
11187;SDS011;5650;52.700;7.306;2024-03-23T04:13:48;32.58;;;7.95;;
11187;SDS011;5650;52.700;7.306;2024-03-23T04:16:24;33.63;;;8.50;;
11187;SDS011;5650;52.700;7.306;2024-03-23T04:18:51;30.75;;;8.07;;
11187;SDS011;5650;52.700;7.306;2024-03-23T04:21:19;45.95;;;8.23;;
11187;SDS011;5650;52.700;7.306;2024-03-23T04:23:46;33.20;;;8.20;;
11187;SDS011;5650;52.700;7.306;2024-03-23T04:26:14;33.75;;;7.97;;
11187;SDS011;5650;52.700;7.306;2024-03-23T04:28:41;31.30;;;6.97;;
11187;SDS011;5650;52.700;7.306;2024-03-23T04:31:08;38.88;;;7.57;;
11187;SDS011;5650;52.700;7.306;2024-03-23T04:33:34;32.85;;;7.90;;
11187;SDS011;5650;52.700;7.306;2024-03-23T04:36:02;31.08;;;7.72;;
11187;SDS011;5650;52.700;7.306;2024-03-23T04:38:28;29.27;;;6.85;;
11187;SDS011;5650;52.700;7.306;2024-03-23T04:40:57;34.97;;;7.63;;
11187;SDS011;5650;52.700;7.306;2024-03-23T04:43:26;30.33;;;7.18;;
11187;SDS011;5650;52.700;7.306;2024-03-23T04:45:53;23.10;;;7.53;;
11187;SDS011;5650;52.700;7.306;2024-03-23T04:48:21;29.30;;;7.63;;
11187;SDS011;5650;52.700;7.306;2024-03-23T04:50:49;32.72;;;7.65;;
11187;SDS011;5650;52.700;7.306;2024-03-23T04:53:20;25.05;;;6.93;;
11187;SDS011;5650;52.700;7.306;2024-03-23T04:55:50;33.10;;;7.05;;
11187;SDS011;5650;52.700;7.306;2024-03-23T04:58:18;26.67;;;6.28;;
11187;SDS011;5650;52.700;7.306;2024-03-23T05:00:44;26.92;;;7.13;;
11187;SDS011;5650;52.700;7.306;2024-03-23T05:03:12;30.10;;;7.05;;
11187;SDS011;5650;52.700;7.306;2024-03-23T05:05:38;35.83;;;7.72;;
11187;SDS011;5650;52.700;7.306;2024-03-23T05:08:06;39.45;;;7.45;;
11187;SDS011;5650;52.700;7.306;2024-03-23T05:10:32;26.95;;;6.93;;
11187;SDS011;5650;52.700;7.306;2024-03-23T05:12:59;27.35;;;6.85;;
11187;SDS011;5650;52.700;7.306;2024-03-23T05:15:27;31.20;;;6.95;;
11187;SDS011;5650;52.700;7.306;2024-03-23T05:17:55;28.40;;;6.97;;
11187;SDS011;5650;52.700;7.306;2024-03-23T05:20:21;28.52;;;6.50;;
11187;SDS011;5650;52.700;7.306;2024-03-23T05:22:49;31.00;;;6.78;;
11187;SDS011;5650;52.700;7.306;2024-03-23T05:25:15;30.40;;;7.28;;
11187;SDS011;5650;52.700;7.306;2024-03-23T05:27:43;32.35;;;7.82;;
11187;SDS011;5650;52.700;7.306;2024-03-23T05:30:09;32.83;;;7.18;;
11187;SDS011;5650;52.700;7.306;2024-03-23T05:32:38;26.75;;;7.25;;
11187;SDS011;5650;52.700;7.306;2024-03-23T05:35:15;26.48;;;6.40;;
11187;SDS011;5650;52.700;7.306;2024-03-23T05:37:45;25.42;;;6.55;;
11187;SDS011;5650;52.700;7.306;2024-03-23T05:40:11;42.58;;;8.13;;
11187;SDS011;5650;52.700;7.306;2024-03-23T05:42:41;26.02;;;6.22;;
11187;SDS011;5650;52.700;7.306;2024-03-23T05:45:07;24.23;;;6.13;;
11187;SDS011;5650;52.700;7.306;2024-03-23T05:47:36;23.33;;;6.22;;
11187;SDS011;5650;52.700;7.306;2024-03-23T05:50:15;34.65;;;7.57;;
11187;SDS011;5650;52.700;7.306;2024-03-23T05:52:43;29.73;;;6.68;;
11187;SDS011;5650;52.700;7.306;2024-03-23T05:55:11;32.63;;;7.60;;
11187;SDS011;5650;52.700;7.306;2024-03-23T05:57:41;31.40;;;6.45;;
11187;SDS011;5650;52.700;7.306;2024-03-23T06:00:08;28.27;;;6.75;;
11187;SDS011;5650;52.700;7.306;2024-03-23T06:02:40;25.10;;;6.22;;
11187;SDS011;5650;52.700;7.306;2024-03-23T06:05:09;28.15;;;6.15;;
11187;SDS011;5650;52.700;7.306;2024-03-23T06:07:36;25.90;;;6.25;;
11187;SDS011;5650;52.700;7.306;2024-03-23T06:10:08;22.88;;;6.30;;
11187;SDS011;5650;52.700;7.306;2024-03-23T06:12:36;25.38;;;6.85;;
11187;SDS011;5650;52.700;7.306;2024-03-23T06:15:07;24.85;;;6.55;;
11187;SDS011;5650;52.700;7.306;2024-03-23T06:17:35;31.05;;;7.55;;
11187;SDS011;5650;52.700;7.306;2024-03-23T06:20:01;22.17;;;6.35;;
11187;SDS011;5650;52.700;7.306;2024-03-23T06:22:31;24.80;;;5.45;;
11187;SDS011;5650;52.700;7.306;2024-03-23T06:24:57;26.92;;;7.15;;
11187;SDS011;5650;52.700;7.306;2024-03-23T06:27:24;26.83;;;6.70;;
11187;SDS011;5650;52.700;7.306;2024-03-23T06:29:50;27.83;;;6.55;;
11187;SDS011;5650;52.700;7.306;2024-03-23T06:32:17;20.30;;;6.25;;
11187;SDS011;5650;52.700;7.306;2024-03-23T06:34:43;23.98;;;6.30;;
11187;SDS011;5650;52.700;7.306;2024-03-23T06:37:11;20.60;;;6.53;;
11187;SDS011;5650;52.700;7.306;2024-03-23T06:39:38;22.15;;;7.20;;
11187;SDS011;5650;52.700;7.306;2024-03-23T06:42:06;22.90;;;6.90;;
11187;SDS011;5650;52.700;7.306;2024-03-23T06:44:33;21.58;;;6.10;;
11187;SDS011;5650;52.700;7.306;2024-03-23T06:47:00;29.00;;;6.82;;
11187;SDS011;5650;52.700;7.306;2024-03-23T06:49:27;26.95;;;6.65;;
11187;SDS011;5650;52.700;7.306;2024-03-23T06:51:54;22.00;;;6.63;;
11187;SDS011;5650;52.700;7.306;2024-03-23T06:54:20;23.65;;;6.35;;
11187;SDS011;5650;52.700;7.306;2024-03-23T06:56:49;24.25;;;7.30;;
11187;SDS011;5650;52.700;7.306;2024-03-23T06:59:15;23.65;;;6.90;;
11187;SDS011;5650;52.700;7.306;2024-03-23T07:01:42;27.48;;;6.80;;
11187;SDS011;5650;52.700;7.306;2024-03-23T07:04:14;23.42;;;6.18;;
11187;SDS011;5650;52.700;7.306;2024-03-23T07:06:44;27.85;;;6.32;;
11187;SDS011;5650;52.700;7.306;2024-03-23T07:09:11;17.02;;;5.13;;
11187;SDS011;5650;52.700;7.306;2024-03-23T07:11:38;18.30;;;4.88;;
11187;SDS011;5650;52.700;7.306;2024-03-23T07:14:09;23.85;;;5.32;;
11187;SDS011;5650;52.700;7.306;2024-03-23T07:16:37;16.00;;;5.13;;
11187;SDS011;5650;52.700;7.306;2024-03-23T07:19:15;17.48;;;4.85;;
11187;SDS011;5650;52.700;7.306;2024-03-23T07:21:43;15.38;;;4.43;;
11187;SDS011;5650;52.700;7.306;2024-03-23T07:24:12;14.40;;;4.25;;
11187;SDS011;5650;52.700;7.306;2024-03-23T07:26:41;15.57;;;4.65;;
11187;SDS011;5650;52.700;7.306;2024-03-23T07:29:09;13.80;;;4.13;;
11187;SDS011;5650;52.700;7.306;2024-03-23T07:31:39;12.10;;;3.83;;
11187;SDS011;5650;52.700;7.306;2024-03-23T07:34:06;11.93;;;3.53;;
11187;SDS011;5650;52.700;7.306;2024-03-23T07:36:33;10.23;;;3.28;;
11187;SDS011;5650;52.700;7.306;2024-03-23T07:38:59;13.32;;;3.15;;
11187;SDS011;5650;52.700;7.306;2024-03-23T07:41:26;7.85;;;2.58;;
11187;SDS011;5650;52.700;7.306;2024-03-23T07:43:53;14.35;;;3.85;;
11187;SDS011;5650;52.700;7.306;2024-03-23T07:46:22;13.02;;;3.80;;
11187;SDS011;5650;52.700;7.306;2024-03-23T07:48:53;10.68;;;3.55;;
11187;SDS011;5650;52.700;7.306;2024-03-23T07:51:23;13.00;;;3.47;;
11187;SDS011;5650;52.700;7.306;2024-03-23T07:53:52;12.10;;;3.95;;
11187;SDS011;5650;52.700;7.306;2024-03-23T07:56:21;11.30;;;3.95;;
11187;SDS011;5650;52.700;7.306;2024-03-23T07:58:51;11.75;;;3.55;;
11187;SDS011;5650;52.700;7.306;2024-03-23T08:01:18;12.00;;;4.00;;
11187;SDS011;5650;52.700;7.306;2024-03-23T08:03:46;11.88;;;3.67;;
11187;SDS011;5650;52.700;7.306;2024-03-23T08:06:17;10.88;;;2.75;;
11187;SDS011;5650;52.700;7.306;2024-03-23T08:08:45;13.98;;;3.53;;
11187;SDS011;5650;52.700;7.306;2024-03-23T08:11:13;13.30;;;3.40;;
11187;SDS011;5650;52.700;7.306;2024-03-23T08:13:42;14.13;;;3.55;;
11187;SDS011;5650;52.700;7.306;2024-03-23T08:16:14;11.82;;;3.10;;
11187;SDS011;5650;52.700;7.306;2024-03-23T08:18:40;14.05;;;4.07;;
11187;SDS011;5650;52.700;7.306;2024-03-23T08:21:09;14.70;;;4.43;;
11187;SDS011;5650;52.700;7.306;2024-03-23T08:23:35;14.57;;;4.05;;
11187;SDS011;5650;52.700;7.306;2024-03-23T08:26:03;12.00;;;4.00;;
11187;SDS011;5650;52.700;7.306;2024-03-23T08:28:40;16.00;;;3.70;;
11187;SDS011;5650;52.700;7.306;2024-03-23T08:31:10;12.88;;;4.13;;
11187;SDS011;5650;52.700;7.306;2024-03-23T08:33:37;17.88;;;5.10;;
11187;SDS011;5650;52.700;7.306;2024-03-23T08:36:14;18.80;;;5.47;;
11187;SDS011;5650;52.700;7.306;2024-03-23T08:38:46;19.85;;;4.82;;
11187;SDS011;5650;52.700;7.306;2024-03-23T08:41:15;13.98;;;4.47;;
11187;SDS011;5650;52.700;7.306;2024-03-23T08:43:41;13.35;;;4.47;;
11187;SDS011;5650;52.700;7.306;2024-03-23T08:46:12;10.25;;;3.03;;
11187;SDS011;5650;52.700;7.306;2024-03-23T08:51:27;10.18;;;3.10;;
11187;SDS011;5650;52.700;7.306;2024-03-23T08:53:53;9.27;;;3.08;;
11187;SDS011;5650;52.700;7.306;2024-03-23T08:56:21;5.20;;;2.15;;
11187;SDS011;5650;52.700;7.306;2024-03-23T08:58:47;10.68;;;2.78;;
11187;SDS011;5650;52.700;7.306;2024-03-23T09:01:14;7.18;;;2.65;;
11187;SDS011;5650;52.700;7.306;2024-03-23T09:03:40;6.18;;;2.30;;
11187;SDS011;5650;52.700;7.306;2024-03-23T09:06:08;8.05;;;2.70;;
11187;SDS011;5650;52.700;7.306;2024-03-23T09:08:39;9.18;;;2.63;;
11187;SDS011;5650;52.700;7.306;2024-03-23T09:11:07;9.32;;;2.65;;
11187;SDS011;5650;52.700;7.306;2024-03-23T09:13:34;7.28;;;2.08;;
11187;SDS011;5650;52.700;7.306;2024-03-23T09:16:02;6.15;;;1.85;;
11187;SDS011;5650;52.700;7.306;2024-03-23T09:18:31;5.65;;;1.85;;
11187;SDS011;5650;52.700;7.306;2024-03-23T09:21:04;7.45;;;1.73;;
11187;SDS011;5650;52.700;7.306;2024-03-23T09:23:41;5.82;;;1.70;;
11187;SDS011;5650;52.700;7.306;2024-03-23T09:26:11;5.88;;;1.45;;
11187;SDS011;5650;52.700;7.306;2024-03-23T09:28:40;6.38;;;1.90;;
11187;SDS011;5650;52.700;7.306;2024-03-23T09:31:10;5.30;;;1.35;;
11187;SDS011;5650;52.700;7.306;2024-03-23T09:33:42;6.63;;;1.90;;
11187;SDS011;5650;52.700;7.306;2024-03-23T09:36:14;7.28;;;1.67;;
11187;SDS011;5650;52.700;7.306;2024-03-23T09:38:42;7.45;;;2.08;;
11187;SDS011;5650;52.700;7.306;2024-03-23T09:41:09;5.78;;;1.90;;
11187;SDS011;5650;52.700;7.306;2024-03-23T09:43:41;7.38;;;2.15;;
11187;SDS011;5650;52.700;7.306;2024-03-23T09:46:08;10.77;;;2.15;;
11187;SDS011;5650;52.700;7.306;2024-03-23T09:48:41;7.30;;;1.65;;
11187;SDS011;5650;52.700;7.306;2024-03-23T09:51:12;5.68;;;2.13;;
11187;SDS011;5650;52.700;7.306;2024-03-23T09:53:38;7.78;;;2.05;;
11187;SDS011;5650;52.700;7.306;2024-03-23T09:56:14;11.07;;;1.98;;
11187;SDS011;5650;52.700;7.306;2024-03-23T09:58:40;8.85;;;2.13;;
11187;SDS011;5650;52.700;7.306;2024-03-23T10:01:07;6.03;;;1.50;;
11187;SDS011;5650;52.700;7.306;2024-03-23T10:03:42;7.50;;;2.10;;
11187;SDS011;5650;52.700;7.306;2024-03-23T10:06:10;7.80;;;2.38;;
11187;SDS011;5650;52.700;7.306;2024-03-23T10:08:39;5.45;;;1.55;;
11187;SDS011;5650;52.700;7.306;2024-03-23T10:11:14;6.53;;;2.00;;
11187;SDS011;5650;52.700;7.306;2024-03-23T10:13:41;8.95;;;1.98;;
11187;SDS011;5650;52.700;7.306;2024-03-23T10:16:09;6.97;;;1.88;;
11187;SDS011;5650;52.700;7.306;2024-03-23T10:18:38;4.60;;;1.65;;
11187;SDS011;5650;52.700;7.306;2024-03-23T10:21:14;6.28;;;1.85;;
11187;SDS011;5650;52.700;7.306;2024-03-23T10:23:41;9.15;;;1.90;;
11187;SDS011;5650;52.700;7.306;2024-03-23T10:26:17;5.65;;;1.58;;
11187;SDS011;5650;52.700;7.306;2024-03-23T10:28:52;6.43;;;1.30;;
11187;SDS011;5650;52.700;7.306;2024-03-23T10:31:20;10.93;;;2.08;;
11187;SDS011;5650;52.700;7.306;2024-03-23T10:33:46;4.95;;;1.55;;
11187;SDS011;5650;52.700;7.306;2024-03-23T10:36:17;7.60;;;1.98;;
11187;SDS011;5650;52.700;7.306;2024-03-23T10:38:54;7.05;;;2.03;;
11187;SDS011;5650;52.700;7.306;2024-03-23T10:41:21;6.32;;;2.25;;
11187;SDS011;5650;52.700;7.306;2024-03-23T10:43:49;6.15;;;1.98;;
11187;SDS011;5650;52.700;7.306;2024-03-23T10:46:20;8.70;;;2.28;;
11187;SDS011;5650;52.700;7.306;2024-03-23T10:48:54;8.43;;;2.28;;
11187;SDS011;5650;52.700;7.306;2024-03-23T10:51:23;12.77;;;2.25;;
11187;SDS011;5650;52.700;7.306;2024-03-23T10:53:54;8.98;;;2.20;;
11187;SDS011;5650;52.700;7.306;2024-03-23T10:56:26;7.30;;;2.42;;
11187;SDS011;5650;52.700;7.306;2024-03-23T10:58:58;8.85;;;2.17;;
11187;SDS011;5650;52.700;7.306;2024-03-23T11:01:30;5.90;;;2.33;;
11187;SDS011;5650;52.700;7.306;2024-03-23T11:03:58;7.20;;;2.15;;
11187;SDS011;5650;52.700;7.306;2024-03-23T11:06:38;8.80;;;2.08;;
11187;SDS011;5650;52.700;7.306;2024-03-23T11:15:05;10.27;;;2.03;;
11187;SDS011;5650;52.700;7.306;2024-03-23T11:17:40;9.93;;;2.40;;
11187;SDS011;5650;52.700;7.306;2024-03-23T11:20:08;11.88;;;3.22;;
11187;SDS011;5650;52.700;7.306;2024-03-23T11:22:42;8.73;;;1.75;;
11187;SDS011;5650;52.700;7.306;2024-03-23T11:25:12;10.27;;;2.10;;
11187;SDS011;5650;52.700;7.306;2024-03-23T11:30:57;10.20;;;2.80;;
11187;SDS011;5650;52.700;7.306;2024-03-23T11:33:24;9.65;;;2.70;;
11187;SDS011;5650;52.700;7.306;2024-03-23T11:36:00;8.50;;;2.22;;
11187;SDS011;5650;52.700;7.306;2024-03-23T11:38:26;7.32;;;1.98;;
11187;SDS011;5650;52.700;7.306;2024-03-23T11:41:02;4.40;;;1.40;;
11187;SDS011;5650;52.700;7.306;2024-03-23T11:43:28;5.95;;;1.63;;
11187;SDS011;5650;52.700;7.306;2024-03-23T11:45:55;5.05;;;1.35;;
11187;SDS011;5650;52.700;7.306;2024-03-23T11:48:27;7.60;;;1.80;;
11187;SDS011;5650;52.700;7.306;2024-03-23T11:50:56;8.18;;;2.00;;
11187;SDS011;5650;52.700;7.306;2024-03-23T11:53:26;8.70;;;2.45;;
11187;SDS011;5650;52.700;7.306;2024-03-23T11:55:55;11.60;;;2.15;;
11187;SDS011;5650;52.700;7.306;2024-03-23T11:58:25;5.38;;;1.88;;
11187;SDS011;5650;52.700;7.306;2024-03-23T12:00:56;8.30;;;1.80;;
11187;SDS011;5650;52.700;7.306;2024-03-23T12:03:23;9.10;;;1.98;;
11187;SDS011;5650;52.700;7.306;2024-03-23T12:05:57;8.45;;;1.60;;
11187;SDS011;5650;52.700;7.306;2024-03-23T12:08:39;9.18;;;2.70;;
11187;SDS011;5650;52.700;7.306;2024-03-23T12:11:08;6.47;;;2.00;;
11187;SDS011;5650;52.700;7.306;2024-03-23T12:13:40;6.43;;;1.55;;
11187;SDS011;5650;52.700;7.306;2024-03-23T12:16:11;8.10;;;2.05;;
11187;SDS011;5650;52.700;7.306;2024-03-23T12:18:43;11.52;;;1.88;;
11187;SDS011;5650;52.700;7.306;2024-03-23T12:21:12;8.10;;;2.30;;
11187;SDS011;5650;52.700;7.306;2024-03-23T12:23:42;8.48;;;2.20;;
11187;SDS011;5650;52.700;7.306;2024-03-23T12:26:12;7.63;;;2.13;;
11187;SDS011;5650;52.700;7.306;2024-03-23T12:28:44;10.23;;;1.98;;
11187;SDS011;5650;52.700;7.306;2024-03-23T12:31:14;5.72;;;1.75;;
11187;SDS011;5650;52.700;7.306;2024-03-23T12:33:40;8.65;;;2.38;;
11187;SDS011;5650;52.700;7.306;2024-03-23T12:36:07;4.85;;;1.58;;
11187;SDS011;5650;52.700;7.306;2024-03-23T12:38:35;9.43;;;2.17;;
11187;SDS011;5650;52.700;7.306;2024-03-23T12:41:02;8.40;;;1.90;;
11187;SDS011;5650;52.700;7.306;2024-03-23T12:43:30;9.35;;;2.42;;
11187;SDS011;5650;52.700;7.306;2024-03-23T12:46:06;7.43;;;2.20;;
11187;SDS011;5650;52.700;7.306;2024-03-23T12:48:38;6.85;;;2.35;;
11187;SDS011;5650;52.700;7.306;2024-03-23T12:51:06;5.68;;;2.10;;
11187;SDS011;5650;52.700;7.306;2024-03-23T12:53:32;6.13;;;1.67;;
11187;SDS011;5650;52.700;7.306;2024-03-23T12:56:01;2.22;;;1.17;;
11187;SDS011;5650;52.700;7.306;2024-03-23T12:58:28;3.80;;;1.17;;
11187;SDS011;5650;52.700;7.306;2024-03-23T13:00:55;2.90;;;1.23;;
11187;SDS011;5650;52.700;7.306;2024-03-23T13:03:26;3.58;;;1.00;;
11187;SDS011;5650;52.700;7.306;2024-03-23T13:05:54;5.85;;;1.50;;
11187;SDS011;5650;52.700;7.306;2024-03-23T13:08:20;5.10;;;1.38;;
11187;SDS011;5650;52.700;7.306;2024-03-23T13:10:51;5.45;;;1.35;;
11187;SDS011;5650;52.700;7.306;2024-03-23T13:13:17;3.35;;;1.40;;
11187;SDS011;5650;52.700;7.306;2024-03-23T13:15:51;7.68;;;1.67;;
11187;SDS011;5650;52.700;7.306;2024-03-23T13:18:20;4.07;;;1.45;;
11187;SDS011;5650;52.700;7.306;2024-03-23T13:20:53;6.20;;;2.33;;
11187;SDS011;5650;52.700;7.306;2024-03-23T13:23:19;11.38;;;2.00;;
11187;SDS011;5650;52.700;7.306;2024-03-23T13:25:54;5.68;;;1.50;;
11187;SDS011;5650;52.700;7.306;2024-03-23T13:28:21;6.85;;;2.55;;
11187;SDS011;5650;52.700;7.306;2024-03-23T13:30:52;4.97;;;1.63;;
11187;SDS011;5650;52.700;7.306;2024-03-23T13:33:18;5.72;;;2.03;;
11187;SDS011;5650;52.700;7.306;2024-03-23T13:35:51;9.00;;;2.45;;
11187;SDS011;5650;52.700;7.306;2024-03-23T13:38:18;7.18;;;1.73;;
11187;SDS011;5650;52.700;7.306;2024-03-23T13:40:56;5.72;;;1.50;;
11187;SDS011;5650;52.700;7.306;2024-03-23T13:43:23;2.55;;;1.20;;
11187;SDS011;5650;52.700;7.306;2024-03-23T13:45:52;4.00;;;1.10;;
11187;SDS011;5650;52.700;7.306;2024-03-23T13:48:20;2.60;;;0.98;;
11187;SDS011;5650;52.700;7.306;2024-03-23T13:50:58;5.50;;;1.42;;
11187;SDS011;5650;52.700;7.306;2024-03-23T13:53:30;6.13;;;1.88;;
11187;SDS011;5650;52.700;7.306;2024-03-23T13:55:59;5.85;;;1.60;;
11187;SDS011;5650;52.700;7.306;2024-03-23T13:58:26;9.05;;;2.33;;
11187;SDS011;5650;52.700;7.306;2024-03-23T14:01:00;10.32;;;1.90;;
11187;SDS011;5650;52.700;7.306;2024-03-23T14:03:29;9.90;;;2.42;;
11187;SDS011;5650;52.700;7.306;2024-03-23T14:05:57;4.55;;;1.92;;
11187;SDS011;5650;52.700;7.306;2024-03-23T14:08:23;8.65;;;1.85;;
11187;SDS011;5650;52.700;7.306;2024-03-23T14:10:54;6.93;;;2.15;;
11187;SDS011;5650;52.700;7.306;2024-03-23T14:13:22;9.18;;;2.10;;
11187;SDS011;5650;52.700;7.306;2024-03-23T14:15:52;6.68;;;1.60;;
11187;SDS011;5650;52.700;7.306;2024-03-23T14:18:19;6.38;;;2.10;;
11187;SDS011;5650;52.700;7.306;2024-03-23T14:20:56;9.52;;;2.20;;
11187;SDS011;5650;52.700;7.306;2024-03-23T14:23:30;7.57;;;2.35;;
11187;SDS011;5650;52.700;7.306;2024-03-23T14:25:58;8.48;;;2.22;;
11187;SDS011;5650;52.700;7.306;2024-03-23T14:28:27;10.60;;;2.47;;
11187;SDS011;5650;52.700;7.306;2024-03-23T14:30:55;7.53;;;2.20;;
11187;SDS011;5650;52.700;7.306;2024-03-23T14:33:22;9.98;;;2.40;;
11187;SDS011;5650;52.700;7.306;2024-03-23T14:35:51;10.25;;;2.47;;
11187;SDS011;5650;52.700;7.306;2024-03-23T14:38:22;10.90;;;2.58;;
11187;SDS011;5650;52.700;7.306;2024-03-23T14:40:48;7.25;;;2.17;;
11187;SDS011;5650;52.700;7.306;2024-03-23T14:43:16;5.78;;;1.75;;
11187;SDS011;5650;52.700;7.306;2024-03-23T14:46:05;7.68;;;1.92;;
11187;SDS011;5650;52.700;7.306;2024-03-23T14:48:33;8.23;;;2.17;;
11187;SDS011;5650;52.700;7.306;2024-03-23T14:51:05;7.80;;;2.40;;
11187;SDS011;5650;52.700;7.306;2024-03-23T14:53:40;6.63;;;2.13;;
11187;SDS011;5650;52.700;7.306;2024-03-23T14:56:10;8.95;;;2.58;;
11187;SDS011;5650;52.700;7.306;2024-03-23T14:58:44;8.40;;;1.92;;
11187;SDS011;5650;52.700;7.306;2024-03-23T15:01:18;8.32;;;2.10;;
11187;SDS011;5650;52.700;7.306;2024-03-23T15:03:52;9.30;;;2.30;;
11187;SDS011;5650;52.700;7.306;2024-03-23T15:06:21;10.07;;;2.20;;
11187;SDS011;5650;52.700;7.306;2024-03-23T15:08:48;11.30;;;2.42;;
11187;SDS011;5650;52.700;7.306;2024-03-23T15:11:14;7.43;;;2.10;;
11187;SDS011;5650;52.700;7.306;2024-03-23T15:13:44;12.00;;;2.60;;
11187;SDS011;5650;52.700;7.306;2024-03-23T15:16:10;10.30;;;2.72;;
11187;SDS011;5650;52.700;7.306;2024-03-23T15:18:42;7.45;;;2.38;;
11187;SDS011;5650;52.700;7.306;2024-03-23T15:21:07;7.60;;;1.95;;
11187;SDS011;5650;52.700;7.306;2024-03-23T15:23:40;6.18;;;1.52;;
11187;SDS011;5650;52.700;7.306;2024-03-23T15:26:11;3.88;;;1.30;;
11187;SDS011;5650;52.700;7.306;2024-03-23T15:28:38;5.88;;;1.20;;
11187;SDS011;5650;52.700;7.306;2024-03-23T15:31:06;5.15;;;1.30;;
11187;SDS011;5650;52.700;7.306;2024-03-23T15:33:34;6.78;;;1.63;;
11187;SDS011;5650;52.700;7.306;2024-03-23T15:36:03;11.32;;;1.88;;
11187;SDS011;5650;52.700;7.306;2024-03-23T15:38:31;6.28;;;1.73;;
11187;SDS011;5650;52.700;7.306;2024-03-23T15:40:57;7.47;;;1.92;;
11187;SDS011;5650;52.700;7.306;2024-03-23T15:43:33;5.85;;;1.88;;
11187;SDS011;5650;52.700;7.306;2024-03-23T15:46:00;6.40;;;2.20;;
11187;SDS011;5650;52.700;7.306;2024-03-23T15:48:28;7.20;;;2.10;;
11187;SDS011;5650;52.700;7.306;2024-03-23T15:50:55;6.47;;;1.88;;
11187;SDS011;5650;52.700;7.306;2024-03-23T15:53:25;12.50;;;2.25;;
11187;SDS011;5650;52.700;7.306;2024-03-23T15:55:55;10.88;;;2.20;;
11187;SDS011;5650;52.700;7.306;2024-03-23T15:58:22;11.90;;;2.80;;
11187;SDS011;5650;52.700;7.306;2024-03-23T16:00:55;9.48;;;2.25;;
11187;SDS011;5650;52.700;7.306;2024-03-23T16:03:22;13.75;;;2.88;;
11187;SDS011;5650;52.700;7.306;2024-03-23T16:05:56;7.25;;;2.08;;
11187;SDS011;5650;52.700;7.306;2024-03-23T16:08:26;12.40;;;2.85;;